Time;durP1;ratioP1;P1;durP2;ratioP2;P2;SDS_P1;SDS_P2;PMS_P1;PMS_P2;Temp;Humidity;BMP_temperature;BMP_pressure;BME280_temperature;BME280_humidity;BME280_pressure;Samples;Min_cycle;Max_cycle;Signal;HPM_P1;HPM_P2
2022/08/21 00:00:36;;;;;;;18.67;6.50;;;;;;;22.55;65.73;100177.33;1751124;80;21125;-47
2022/08/21 00:03:06;;;;;;;21.00;6.67;;;;;;;22.50;65.87;100176.59;1715492;81;21025;-47
2022/08/21 00:05:37;;;;;;;19.12;7.15;;;;;;;22.45;65.99;100179.07;1708108;83;21062;-47
2022/08/21 00:08:04;;;;;;;16.07;7.00;;;;;;;22.39;66.24;100182.56;1697145;82;21545;-47
2022/08/21 00:10:32;;;;;;;16.55;6.87;;;;;;;22.33;66.42;100176.18;1706004;83;21621;-48
2022/08/21 00:13:01;;;;;;;22.27;7.55;;;;;;;22.28;66.53;100179.98;1690921;82;21200;-47
2022/08/21 00:15:31;;;;;;;19.02;6.37;;;;;;;22.25;66.62;100182.52;1690447;82;21513;-47
2022/08/21 00:17:58;;;;;;;20.82;7.55;;;;;;;22.27;66.54;100179.64;1707646;83;21082;-46
2022/08/21 00:20:25;;;;;;;21.07;6.83;;;;;;;22.25;66.62;100179.02;1707891;83;21030;-47
2022/08/21 00:22:51;;;;;;;19.48;7.22;;;;;;;22.19;66.75;100175.31;1709022;81;21634;-48
2022/08/21 00:25:18;;;;;;;18.40;7.65;;;;;;;22.13;67.02;100179.33;1722296;82;21243;-46
2022/08/21 00:27:46;;;;;;;21.25;6.60;;;;;;;22.07;67.24;100181.79;1717890;82;21094;-47
2022/08/21 00:30:15;;;;;;;12.03;5.97;;;;;;;22.04;67.50;100184.02;1724747;82;21071;-47
2022/08/21 00:32:41;;;;;;;20.00;6.12;;;;;;;22.06;67.45;100184.67;1718582;82;21000;-47
2022/08/21 00:35:12;;;;;;;19.00;6.15;;;;;;;22.05;67.48;100187.84;1724711;81;21145;-46
2022/08/21 00:37:40;;;;;;;19.35;7.00;;;;;;;22.07;67.52;100197.02;1718985;82;21362;-47
2022/08/21 00:40:10;;;;;;;20.77;7.12;;;;;;;22.05;67.57;100191.86;1731121;82;21097;-47
2022/08/21 00:42:37;;;;;;;16.35;6.72;;;;;;;22.03;67.54;100186.41;1723128;81;21093;-47
2022/08/21 00:45:05;;;;;;;22.55;6.62;;;;;;;22.00;67.60;100190.83;1724255;82;21093;-47
2022/08/21 00:47:32;;;;;;;15.08;5.75;;;;;;;21.95;67.57;100189.27;1720517;81;20986;-46
2022/08/21 00:49:59;;;;;;;19.92;6.72;;;;;;;21.94;67.72;100192.97;1724445;81;21249;-46
2022/08/21 00:52:29;;;;;;;26.57;6.87;;;;;;;21.92;67.74;100190.48;1709369;81;21589;-47
2022/08/21 00:54:56;;;;;;;19.85;6.87;;;;;;;21.90;67.89;100189.87;1710309;83;21127;-48
2022/08/21 00:57:27;;;;;;;22.98;7.08;;;;;;;21.86;67.93;100201.51;1720992;82;21112;-48
2022/08/21 00:59:56;;;;;;;14.65;6.85;;;;;;;21.85;68.16;100200.37;1721967;83;21039;-48
2022/08/21 01:02:22;;;;;;;19.23;6.30;;;;;;;21.83;68.23;100193.05;1695672;83;21112;-48
2022/08/21 01:04:49;;;;;;;17.07;6.42;;;;;;;21.85;68.13;100188.31;1722047;83;21137;-48
2022/08/21 01:07:16;;;;;;;22.25;6.17;;;;;;;21.86;67.98;100197.48;1703494;83;21129;-48
2022/08/21 01:09:43;;;;;;;18.02;6.12;;;;;;;21.84;68.00;100192.86;1711074;83;21113;-48
2022/08/21 01:12:10;;;;;;;20.37;6.47;;;;;;;21.80;67.94;100192.93;1719334;81;21070;-48
2022/08/21 01:14:36;;;;;;;18.00;7.37;;;;;;;21.74;68.09;100191.08;1685687;83;21257;-48
2022/08/21 01:17:03;;;;;;;21.35;6.67;;;;;;;21.71;68.11;100195.48;1699417;84;21058;-49
2022/08/21 01:19:30;;;;;;;24.02;6.92;;;;;;;21.69;68.15;100192.19;1700891;84;21747;-48
2022/08/21 01:21:56;;;;;;;16.77;5.60;;;;;;;21.69;68.29;100197.55;1696539;82;21073;-48
2022/08/21 01:24:24;;;;;;;24.05;6.75;;;;;;;21.74;68.39;100196.92;1673993;84;21020;-48
2022/08/21 01:26:50;;;;;;;17.50;6.35;;;;;;;21.77;68.37;100201.88;1702431;83;21950;-48
2022/08/21 01:29:59;;;;;;;20.68;6.85;;;;;;;21.77;68.30;100197.86;1704075;83;21063;-48
2022/08/21 01:32:26;;;;;;;20.77;6.75;;;;;;;21.79;68.59;100193.16;1704870;81;21109;-48
2022/08/21 01:34:52;;;;;;;16.93;6.40;;;;;;;21.82;68.45;100195.41;1688071;84;21082;-49
2022/08/21 01:37:20;;;;;;;20.32;5.83;;;;;;;21.80;68.40;100193.45;1708069;81;21054;-48
2022/08/21 01:39:47;;;;;;;25.52;7.22;;;;;;;21.81;68.23;100199.13;1705108;82;21258;-48
2022/08/21 01:42:14;;;;;;;17.12;6.45;;;;;;;21.85;68.23;100190.99;1683549;83;21365;-49
2022/08/21 01:44:41;;;;;;;15.65;5.90;;;;;;;21.89;68.17;100192.26;1684390;84;21727;-48
2022/08/21 01:47:10;;;;;;;18.77;6.83;;;;;;;21.88;67.94;100195.43;1723153;83;21860;-48
2022/08/21 01:49:37;;;;;;;16.85;6.70;;;;;;;21.87;68.43;100199.64;1723784;81;21136;-48
2022/08/21 01:52:04;;;;;;;22.87;7.37;;;;;;;21.90;68.98;100191.21;1726619;82;21383;-48
2022/08/21 01:54:32;;;;;;;18.20;6.37;;;;;;;21.93;68.59;100194.83;1694571;83;21089;-48
2022/08/21 01:56:59;;;;;;;17.48;6.97;;;;;;;21.94;68.22;100185.78;1707800;83;21011;-48
2022/08/21 01:59:26;;;;;;;20.97;6.78;;;;;;;22.00;68.15;100180.93;1706326;82;21026;-48
2022/08/21 02:01:53;;;;;;;21.90;7.30;;;;;;;22.03;67.79;100177.03;1691561;83;21559;-48
2022/08/21 02:04:20;;;;;;;16.07;7.08;;;;;;;22.00;67.77;100170.22;1712918;82;21296;-48
2022/08/21 02:06:47;;;;;;;22.02;7.20;;;;;;;21.96;67.42;100169.50;1714143;81;21650;-48
2022/08/21 02:09:14;;;;;;;18.25;5.85;;;;;;;21.93;67.23;100168.05;1727494;81;21068;-48
2022/08/21 02:11:41;;;;;;;19.95;6.30;;;;;;;21.86;67.13;100170.70;1715995;83;21077;-48
2022/08/21 02:14:13;;;;;;;22.85;7.22;;;;;;;21.79;67.17;100168.53;1685877;83;21109;-52
2022/08/21 02:16:42;;;;;;;20.17;6.62;;;;;;;21.71;67.40;100172.20;1708238;83;21137;-48
2022/08/21 02:19:10;;;;;;;17.82;6.58;;;;;;;21.65;67.66;100170.84;1680174;84;21090;-48
2022/08/21 02:21:37;;;;;;;16.37;6.28;;;;;;;21.62;67.76;100170.75;1733957;81;21028;-49
2022/08/21 02:24:04;;;;;;;17.62;6.30;;;;;;;21.55;67.90;100173.89;1715342;83;21587;-48
2022/08/21 02:26:31;;;;;;;14.75;5.87;;;;;;;21.51;68.20;100180.16;1707660;83;21556;-49
2022/08/21 02:28:58;;;;;;;22.40;6.47;;;;;;;21.55;68.42;100173.89;1718703;81;21262;-48
2022/08/21 02:31:24;;;;;;;18.87;5.70;;;;;;;21.58;68.47;100181.52;1708863;83;21110;-47
2022/08/21 02:33:51;;;;;;;19.05;5.92;;;;;;;21.62;68.47;100180.61;1679703;83;21138;-48
2022/08/21 02:36:18;;;;;;;17.23;6.30;;;;;;;21.60;68.50;100185.34;1708071;81;21122;-48
2022/08/21 02:38:44;;;;;;;15.10;6.03;;;;;;;21.54;68.65;100177.61;1702821;83;21057;-48
2022/08/21 02:41:14;;;;;;;17.50;6.20;;;;;;;21.48;68.70;100180.55;1720786;81;21620;-48
2022/08/21 02:43:41;;;;;;;20.85;6.22;;;;;;;21.48;68.73;100178.40;1686566;82;21381;-48
2022/08/21 02:46:08;;;;;;;14.33;6.67;;;;;;;21.55;68.64;100173.08;1697504;82;21510;-48
2022/08/21 02:48:36;;;;;;;22.75;6.83;;;;;;;21.56;68.57;100176.08;1695899;82;21046;-49
2022/08/21 02:51:09;;;;;;;16.30;6.92;;;;;;;21.55;68.58;100181.11;1694949;83;21031;-48
2022/08/21 02:53:36;;;;;;;16.00;7.17;;;;;;;21.50;68.48;100188.39;1690417;83;21243;-48
2022/08/21 02:56:06;;;;;;;12.35;5.95;;;;;;;21.43;68.53;100198.22;1701184;83;21046;-48
2022/08/21 02:58:40;;;;;;;19.02;6.12;;;;;;;21.39;68.76;100189.77;1686740;82;21055;-48
2022/08/21 03:01:10;;;;;;;18.23;6.10;;;;;;;21.37;68.73;100185.13;1714050;83;22752;-48
2022/08/21 03:03:39;;;;;;;15.75;6.67;;;;;;;21.35;68.75;100188.52;1699113;83;22458;-48
2022/08/21 03:06:06;;;;;;;16.60;6.58;;;;;;;21.29;68.85;100186.63;1682742;84;21300;-48
2022/08/21 03:08:35;;;;;;;20.43;6.97;;;;;;;21.24;69.09;100187.73;1704071;83;21114;-48
2022/08/21 03:11:01;;;;;;;24.52;6.20;;;;;;;21.23;69.21;100188.75;1724254;82;21094;-48
2022/08/21 03:13:28;;;;;;;18.20;6.47;;;;;;;21.20;69.03;100195.33;1712964;81;21101;-48
2022/08/21 03:15:55;;;;;;;19.75;5.78;;;;;;;21.17;69.07;100194.91;1679182;84;21101;-53
2022/08/21 03:18:21;;;;;;;15.18;5.42;;;;;;;21.18;68.86;100195.20;1719428;82;21246;-49
2022/08/21 03:20:48;;;;;;;22.10;6.60;;;;;;;21.19;68.70;100195.00;1709477;82;21363;-48
2022/08/21 03:23:16;;;;;;;15.38;6.20;;;;;;;21.21;68.61;100200.16;1682482;83;21545;-48
2022/08/21 03:25:43;;;;;;;22.98;6.35;;;;;;;21.18;68.60;100200.55;1704349;82;21549;-48
2022/08/21 03:28:13;;;;;;;21.33;6.10;;;;;;;21.14;68.46;100200.94;1695986;82;21088;-48
2022/08/21 03:30:42;;;;;;;20.30;5.92;;;;;;;21.10;68.53;100202.89;1692021;84;21123;-48
2022/08/21 03:33:09;;;;;;;19.52;5.53;;;;;;;21.08;68.52;100206.25;1702669;82;21723;-48
2022/08/21 03:35:37;;;;;;;13.90;6.28;;;;;;;21.13;68.30;100204.66;1729101;81;21553;-48
2022/08/21 03:38:03;;;;;;;17.70;6.22;;;;;;;21.14;68.21;100200.94;1708343;81;21086;-48
2022/08/21 03:40:31;;;;;;;17.73;6.08;;;;;;;21.13;68.26;100199.80;1709254;82;21573;-48
2022/08/21 03:42:58;;;;;;;14.55;6.70;;;;;;;21.12;68.37;100200.84;1716428;81;21243;-48
2022/08/21 03:45:25;;;;;;;13.22;5.42;;;;;;;21.13;68.21;100198.45;1722185;81;21073;-48
2022/08/21 03:47:59;;;;;;;18.87;5.15;;;;;;;21.16;67.71;100203.42;1727193;81;21089;-48
2022/08/21 03:50:28;;;;;;;18.60;6.55;;;;;;;21.22;67.29;100208.52;1674066;84;21093;-48
2022/08/21 03:52:55;;;;;;;18.37;5.95;;;;;;;21.22;67.57;100203.98;1716047;81;21133;-47
2022/08/21 03:55:21;;;;;;;14.40;5.60;;;;;;;21.20;67.03;100210.05;1702308;83;21252;-49
2022/08/21 03:57:48;;;;;;;16.77;5.58;;;;;;;21.12;66.94;100220.90;1722798;81;21121;-48
2022/08/21 04:00:16;;;;;;;17.87;5.45;;;;;;;21.04;67.07;100217.85;1723062;81;21077;-48
2022/08/21 04:02:43;;;;;;;15.72;5.67;;;;;;;21.02;67.10;100213.22;1733104;81;21097;-48
2022/08/21 04:05:10;;;;;;;13.75;5.87;;;;;;;21.07;66.94;100212.12;1717236;81;21086;-48
2022/08/21 04:07:36;;;;;;;15.88;5.45;;;;;;;21.08;66.57;100216.95;1692206;83;21102;-53
2022/08/21 04:10:05;;;;;;;18.82;6.33;;;;;;;21.06;66.59;100219.81;1728242;81;21062;-49
2022/08/21 04:12:31;;;;;;;14.60;5.40;;;;;;;20.99;66.54;100216.80;1725204;81;21642;-48
2022/08/21 04:14:58;;;;;;;25.72;6.58;;;;;;;20.99;66.74;100212.78;1698021;83;21066;-48
2022/08/21 04:17:25;;;;;;;18.92;6.03;;;;;;;20.98;66.85;100226.68;1717358;81;21088;-48
2022/08/21 04:19:51;;;;;;;17.85;6.10;;;;;;;21.02;66.78;100227.11;1695792;84;21123;-48
2022/08/21 04:22:18;;;;;;;15.55;5.10;;;;;;;21.10;66.62;100222.95;1725792;81;21066;-49
2022/08/21 04:24:44;;;;;;;17.73;5.75;;;;;;;21.16;66.57;100227.50;1714834;81;21106;-48
2022/08/21 04:27:11;;;;;;;16.27;5.62;;;;;;;21.22;66.43;100224.57;1697544;83;21089;-48
2022/08/21 04:29:38;;;;;;;14.47;5.00;;;;;;;21.24;66.06;100224.67;1727578;81;21011;-48
2022/08/21 04:32:05;;;;;;;16.87;5.97;;;;;;;21.27;65.91;100229.64;1697765;84;21154;-48
2022/08/21 04:34:32;;;;;;;16.67;5.35;;;;;;;21.29;65.56;100230.26;1714624;82;21026;-49
2022/08/21 04:36:59;;;;;;;13.08;5.55;;;;;;;21.27;65.18;100224.28;1691306;83;21703;-48
2022/08/21 04:39:25;;;;;;;10.72;5.12;;;;;;;21.28;65.09;100229.11;1693768;83;21055;-48
2022/08/21 04:41:52;;;;;;;15.43;4.97;;;;;;;21.30;65.03;100233.75;1722372;81;21062;-48
2022/08/21 04:44:18;;;;;;;15.50;5.03;;;;;;;21.37;64.61;100228.44;1708543;81;21257;-49
2022/08/21 04:46:45;;;;;;;19.12;5.75;;;;;;;21.40;64.42;100228.05;1715073;83;21004;-48
2022/08/21 04:49:11;;;;;;;17.57;5.45;;;;;;;21.38;64.23;100221.55;1712158;81;21020;-50
2022/08/21 04:51:38;;;;;;;17.32;5.35;;;;;;;21.37;64.15;100223.09;1709894;81;21050;-48
2022/08/21 04:54:15;;;;;;;19.80;5.80;;;;;;;21.34;63.85;100225.14;1695981;83;21109;-48
2022/08/21 04:56:53;;;;;;;20.62;5.78;;;;;;;21.34;63.85;100222.47;1712007;81;21233;-48
2022/08/21 04:59:30;;;;;;;20.10;5.58;;;;;;;21.32;63.66;100221.84;1715855;81;21057;-49
2022/08/21 05:01:57;;;;;;;19.98;5.85;;;;;;;21.31;63.44;100221.52;1735352;81;21070;-48
2022/08/21 05:04:26;;;;;;;18.52;4.37;;;;;;;21.30;63.30;100227.06;1726117;81;21050;-47
2022/08/21 05:06:55;;;;;;;19.35;5.33;;;;;;;21.34;63.18;100228.34;1718663;81;22151;-49
2022/08/21 05:09:21;;;;;;;14.80;5.62;;;;;;;21.42;63.07;100226.02;1721873;81;21113;-48
2022/08/21 05:11:49;;;;;;;15.20;5.12;;;;;;;21.46;63.07;100228.61;1713293;81;21089;-49
2022/08/21 05:14:16;;;;;;;19.50;5.42;;;;;;;21.49;63.04;100233.59;1712808;81;21125;-48
2022/08/21 05:16:43;;;;;;;16.60;5.47;;;;;;;21.50;62.76;100232.06;1709904;81;21124;-48
2022/08/21 05:19:10;;;;;;;17.23;5.42;;;;;;;21.52;62.33;100232.69;1721572;81;21126;-48
2022/08/21 05:21:40;;;;;;;12.53;4.53;;;;;;;21.52;62.47;100232.69;1695193;83;21078;-48
2022/08/21 05:24:07;;;;;;;15.10;5.72;;;;;;;21.54;62.44;100227.14;1686304;83;21063;-48
2022/08/21 05:26:33;;;;;;;20.12;5.37;;;;;;;21.58;62.55;100228.90;1708928;81;21485;-48
2022/08/21 05:29:00;;;;;;;22.65;6.25;;;;;;;21.64;62.84;100219.56;1694403;82;21082;-48
2022/08/21 05:31:26;;;;;;;14.45;5.12;;;;;;;21.75;62.66;100224.84;1700575;82;21154;-48
2022/08/21 05:33:53;;;;;;;15.35;5.42;;;;;;;21.80;62.52;100222.91;1710873;82;21158;-48
2022/08/21 05:36:20;;;;;;;18.23;5.60;;;;;;;21.84;62.16;100218.82;1708919;82;21065;-48
2022/08/21 05:38:46;;;;;;;20.17;5.90;;;;;;;21.86;61.85;100214.08;1697108;82;21070;-49
2022/08/21 05:41:13;;;;;;;20.30;6.03;;;;;;;21.89;61.95;100219.05;1700760;82;21023;-48
2022/08/21 05:43:40;;;;;;;20.12;6.22;;;;;;;21.93;61.88;100224.30;1695411;84;21108;-49
2022/08/21 05:46:07;;;;;;;19.45;5.42;;;;;;;21.95;61.75;100223.58;1699320;82;23142;-48
2022/08/21 05:48:35;;;;;;;18.10;5.37;;;;;;;22.00;61.60;100225.13;1699036;82;21038;-48
2022/08/21 05:51:10;;;;;;;13.95;4.83;;;;;;;22.06;61.27;100225.67;1698048;84;21102;-49
2022/08/21 05:53:37;;;;;;;18.20;5.95;;;;;;;22.10;61.19;100224.75;1694049;82;21017;-49
2022/08/21 05:56:05;;;;;;;19.75;5.85;;;;;;;22.13;60.77;100229.71;1698651;82;21057;-48
2022/08/21 05:58:32;;;;;;;22.35;5.95;;;;;;;22.17;60.51;100230.94;1690189;82;21153;-50
2022/08/21 06:00:59;;;;;;;15.58;5.40;;;;;;;22.18;60.60;100233.95;1704514;82;21130;-48
2022/08/21 06:03:30;;;;;;;20.92;5.10;;;;;;;22.20;60.79;100240.45;1692718;82;21014;-48
2022/08/21 06:05:56;;;;;;;16.02;5.22;;;;;;;22.23;60.72;100234.69;1697285;84;21022;-48
2022/08/21 06:08:23;;;;;;;12.82;5.20;;;;;;;22.26;60.80;100236.97;1694927;82;21125;-48
2022/08/21 06:10:50;;;;;;;19.30;5.33;;;;;;;22.35;60.51;100245.66;1692996;82;21601;-48
2022/08/21 06:13:18;;;;;;;11.50;5.30;;;;;;;22.47;60.23;100249.91;1698877;82;21490;-48
2022/08/21 06:15:44;;;;;;;22.58;5.33;;;;;;;22.54;59.91;100238.14;1698636;82;21565;-48
2022/08/21 06:18:11;;;;;;;15.03;5.58;;;;;;;22.60;59.82;100232.50;1705330;82;21161;-48
2022/08/21 06:20:38;;;;;;;13.98;5.55;;;;;;;22.66;59.61;100234.86;1703685;82;21109;-48
2022/08/21 06:23:05;;;;;;;17.37;5.45;;;;;;;22.70;59.45;100230.75;1702276;82;21253;-48
2022/08/21 06:25:31;;;;;;;13.95;5.30;;;;;;;22.73;59.65;100230.31;1699308;82;21106;-48
2022/08/21 06:28:09;;;;;;;19.07;5.58;;;;;;;22.73;59.47;100232.50;1701698;82;21364;-48
2022/08/21 06:30:37;;;;;;;21.82;5.47;;;;;;;22.75;59.36;100226.41;1698741;82;21650;-48
2022/08/21 06:33:03;;;;;;;17.65;6.17;;;;;;;22.79;59.49;100231.66;1697963;84;21521;-48
2022/08/21 06:35:30;;;;;;;17.40;6.05;;;;;;;22.82;59.33;100225.06;1699537;82;21266;-48
2022/08/21 06:37:57;;;;;;;14.58;5.12;;;;;;;22.83;59.16;100220.02;1714313;82;21050;-48
2022/08/21 06:40:25;;;;;;;17.92;5.78;;;;;;;22.88;59.54;100218.03;1696640;82;21158;-47
2022/08/21 06:42:51;;;;;;;15.25;5.17;;;;;;;22.99;59.25;100221.44;1699645;84;21094;-48
2022/08/21 06:45:18;;;;;;;18.87;5.55;;;;;;;23.07;58.92;100218.56;1695880;84;21094;-48
2022/08/21 06:47:44;;;;;;;15.58;5.22;;;;;;;23.14;58.64;100219.38;1696805;84;21139;-48
2022/08/21 06:50:11;;;;;;;22.67;5.15;;;;;;;23.20;58.64;100216.38;1694420;82;21073;-48
2022/08/21 06:52:37;;;;;;;31.48;6.60;;;;;;;23.25;58.47;100222.45;1696129;84;21573;-48
2022/08/21 06:55:06;;;;;;;19.35;5.60;;;;;;;23.30;58.50;100219.95;1688873;84;21143;-47
2022/08/21 06:57:32;;;;;;;21.60;5.75;;;;;;;23.32;58.24;100213.34;1708930;83;21105;-48
2022/08/21 06:59:59;;;;;;;16.60;5.35;;;;;;;23.34;57.99;100221.20;1703744;83;21179;-47
2022/08/21 07:02:25;;;;;;;23.12;5.72;;;;;;;23.38;58.30;100208.98;1698578;82;21091;-48
2022/08/21 07:04:52;;;;;;;15.75;5.37;;;;;;;23.41;58.20;100212.59;1698697;83;21061;-47
2022/08/21 07:07:19;;;;;;;22.13;5.90;;;;;;;23.45;57.90;100205.78;1696653;83;21608;-48
2022/08/21 07:09:45;;;;;;;17.10;5.78;;;;;;;23.50;57.69;100209.16;1696636;84;21082;-48
2022/08/21 07:12:11;;;;;;;18.12;5.33;;;;;;;23.53;57.73;100210.89;1707940;82;21913;-48
2022/08/21 07:14:38;;;;;;;24.05;5.47;;;;;;;23.57;57.38;100214.00;1656587;83;21117;-48
2022/08/21 07:17:05;;;;;;;20.10;5.45;;;;;;;23.64;57.68;100211.29;1698002;82;21106;-47
2022/08/21 07:19:31;;;;;;;15.95;4.87;;;;;;;23.73;57.58;100214.84;1690414;83;21078;-47
2022/08/21 07:22:01;;;;;;;20.32;5.53;;;;;;;23.81;57.39;100204.38;1708051;82;21129;-47
2022/08/21 07:24:28;;;;;;;14.68;5.47;;;;;;;23.87;57.27;100207.59;1697054;82;21157;-47
2022/08/21 07:26:55;;;;;;;19.65;5.87;;;;;;;23.92;57.35;100201.05;1711709;83;21074;-47
2022/08/21 07:29:22;;;;;;;19.65;5.70;;;;;;;24.02;57.07;100204.59;1712033;82;21091;-47
2022/08/21 07:31:48;;;;;;;19.48;5.08;;;;;;;24.05;56.80;100205.51;1674418;84;21063;-47
2022/08/21 07:34:15;;;;;;;21.55;5.37;;;;;;;24.09;56.86;100202.71;1697997;84;21103;-47
2022/08/21 07:36:42;;;;;;;18.48;6.37;;;;;;;24.09;56.61;100201.86;1694692;83;21129;-49
2022/08/21 07:39:09;;;;;;;16.75;5.05;;;;;;;24.06;56.51;100198.29;1700016;82;21083;-47
2022/08/21 07:41:37;;;;;;;16.07;5.42;;;;;;;24.04;56.51;100194.97;1679327;82;21123;-47
2022/08/21 07:44:03;;;;;;;17.67;6.00;;;;;;;24.03;56.20;100199.53;1702789;84;21098;-47
2022/08/21 07:46:31;;;;;;;20.70;5.70;;;;;;;24.03;56.17;100202.22;1700754;82;21066;-48
2022/08/21 07:48:58;;;;;;;16.45;5.42;;;;;;;24.04;56.48;100195.81;1699563;82;21164;-47
2022/08/21 07:51:27;;;;;;;19.77;5.62;;;;;;;24.07;56.75;100195.89;1701816;82;21074;-48
2022/08/21 07:53:54;;;;;;;24.63;5.30;;;;;;;24.15;56.87;100190.26;1691365;82;21070;-47
2022/08/21 07:56:21;;;;;;;27.65;6.72;;;;;;;24.26;56.18;100192.25;1690491;84;21062;-47
2022/08/21 07:58:48;;;;;;;25.95;6.17;;;;;;;24.34;56.14;100188.98;1683688;82;21092;-47
2022/08/21 08:01:15;;;;;;;18.85;5.80;;;;;;;24.41;55.95;100189.75;1687165;82;21156;-47
2022/08/21 08:03:41;;;;;;;16.95;6.25;;;;;;;24.47;56.36;100189.70;1700817;82;21097;-47
2022/08/21 08:06:11;;;;;;;32.05;7.10;;;;;;;24.55;56.18;100189.99;1677970;82;21185;-47
2022/08/21 08:08:36;;;;;;;17.70;5.58;;;;;;;24.65;56.08;100184.13;1699073;84;21581;-47
2022/08/21 08:11:03;;;;;;;21.70;5.97;;;;;;;24.75;56.46;100187.66;1699346;82;21050;-47
2022/08/21 08:13:31;;;;;;;13.90;4.95;;;;;;;24.81;56.25;100182.72;1696687;82;21249;-48
2022/08/21 08:15:57;;;;;;;16.00;5.72;;;;;;;24.86;55.67;100182.87;1695787;82;21541;-47
2022/08/21 08:18:24;;;;;;;20.00;5.80;;;;;;;24.93;55.87;100180.13;1707835;82;21540;-48
2022/08/21 08:20:50;;;;;;;19.07;5.90;;;;;;;24.92;55.01;100172.58;1694709;82;21043;-48
2022/08/21 08:23:17;;;;;;;18.57;5.62;;;;;;;24.91;55.85;100181.69;1697346;82;21083;-47
2022/08/21 08:25:43;;;;;;;22.20;5.22;;;;;;;24.94;55.50;100179.91;1693711;82;21163;-47
2022/08/21 08:28:10;;;;;;;13.60;5.25;;;;;;;24.99;55.79;100184.09;1689807;82;21265;-47
2022/08/21 08:30:38;;;;;;;19.87;6.08;;;;;;;25.06;55.88;100180.52;1693876;82;21019;-47
2022/08/21 08:33:05;;;;;;;16.45;4.62;;;;;;;25.15;55.43;100174.62;1693290;84;21056;-47
2022/08/21 08:35:32;;;;;;;18.20;4.85;;;;;;;25.29;54.99;100169.93;1694492;82;21564;-47
2022/08/21 08:37:58;;;;;;;28.30;7.00;;;;;;;25.40;54.47;100169.19;1693145;84;21258;-48
2022/08/21 08:40:40;;;;;;;25.77;6.58;;;;;;;25.50;54.20;100169.16;1684809;82;21159;-47
2022/08/21 08:43:06;;;;;;;29.57;6.87;;;;;;;25.59;54.33;100168.63;1691759;84;21032;-48
2022/08/21 08:45:37;;;;;;;21.95;5.70;;;;;;;25.70;54.18;100164.86;1688822;84;21082;-48
2022/08/21 08:48:06;;;;;;;19.95;5.28;;;;;;;25.77;53.24;100167.77;1688124;84;21145;-48
2022/08/21 08:50:55;;;;;;;18.12;5.40;;;;;;;25.83;53.42;100162.52;1697113;82;21997;-47
2022/08/21 08:53:30;;;;;;;29.07;6.05;;;;;;;25.90;53.79;100165.39;1695857;84;21082;-47
2022/08/21 08:55:56;;;;;;;20.63;5.40;;;;;;;26.00;53.80;100163.53;1692715;84;21030;-49
2022/08/21 08:58:27;;;;;;;15.08;5.37;;;;;;;26.07;53.68;100164.78;1701940;84;21103;-47
2022/08/21 09:00:54;;;;;;;17.45;5.37;;;;;;;26.12;53.33;100166.25;1682965;84;21580;-48
2022/08/21 09:03:22;;;;;;;16.52;5.05;;;;;;;26.14;53.07;100162.29;1701876;84;21569;-48
2022/08/21 09:06:15;;;;;;;15.05;5.70;;;;;;;26.20;53.10;100162.41;1696078;83;21098;-47
2022/08/21 09:08:54;;;;;;;19.27;5.33;;;;;;;26.24;52.71;100156.34;1701827;84;21015;-47
2022/08/21 09:11:44;;;;;;;18.27;5.42;;;;;;;26.33;52.43;100156.81;1688683;83;21065;-47
2022/08/21 09:14:34;;;;;;;20.23;5.78;;;;;;;26.39;51.50;100158.55;1695759;84;21035;-48
2022/08/21 09:17:13;;;;;;;18.12;5.53;;;;;;;26.41;51.39;100152.42;1691791;84;21105;-48
2022/08/21 09:20:05;;;;;;;19.27;6.33;;;;;;;26.46;52.34;100156.59;1685734;84;21077;-48
2022/08/21 09:22:49;;;;;;;21.48;4.87;;;;;;;26.53;52.00;100154.28;1688270;84;21038;-47
2022/08/21 09:25:28;;;;;;;26.27;5.60;;;;;;;26.59;51.90;100150.66;1691549;84;21098;-48
2022/08/21 09:27:55;;;;;;;17.15;4.65;;;;;;;26.65;51.40;100151.93;1716465;83;21074;-47
2022/08/21 09:30:27;;;;;;;18.30;5.10;;;;;;;26.73;51.00;100152.63;1719331;83;21213;-47
2022/08/21 09:32:54;;;;;;;21.42;6.00;;;;;;;26.75;49.44;100148.64;1705141;83;21513;-48
2022/08/21 09:35:22;;;;;;;18.37;4.78;;;;;;;26.74;49.29;100150.23;1708252;83;21078;-48
2022/08/21 09:38:00;;;;;;;15.03;4.53;;;;;;;26.76;50.05;100159.72;1706925;83;21097;-48
2022/08/21 09:40:44;;;;;;;19.77;4.90;;;;;;;26.82;49.73;100157.44;1698228;82;21086;-48
2022/08/21 09:43:21;;;;;;;19.45;5.00;;;;;;;26.88;49.35;100152.95;1704747;83;21129;-48
2022/08/21 09:45:51;;;;;;;22.42;5.40;;;;;;;26.97;48.95;100145.34;1697864;83;21086;-47
2022/08/21 09:48:24;;;;;;;10.10;4.10;;;;;;;27.04;49.14;100142.79;1718617;83;21045;-47
2022/08/21 09:50:51;;;;;;;25.77;5.25;;;;;;;27.13;49.27;100146.47;1717216;83;21465;-47
2022/08/21 09:53:28;;;;;;;19.15;4.65;;;;;;;27.21;48.26;100142.05;1708429;81;21572;-47
2022/08/21 09:58:46;;;;;;;13.50;4.22;;;;;;;27.36;47.55;100136.98;1720166;83;21055;-47
2022/08/21 10:01:24;;;;;;;17.50;5.22;;;;;;;27.40;47.04;100137.32;1691223;83;21073;-48
2022/08/21 10:04:09;;;;;;;21.75;4.78;;;;;;;27.42;47.32;100133.33;1692453;83;21074;-47
2022/08/21 10:06:36;;;;;;;18.50;4.78;;;;;;;27.49;47.24;100135.05;1721223;82;21577;-48
2022/08/21 10:09:08;;;;;;;17.62;4.85;;;;;;;27.52;46.99;100135.41;1716493;82;21235;-48
2022/08/21 10:11:36;;;;;;;20.30;4.45;;;;;;;27.60;47.18;100140.95;1679605;83;21150;-48
2022/08/21 10:14:29;;;;;;;19.30;4.62;;;;;;;27.67;46.91;100138.10;1690117;83;21031;-48
2022/08/21 10:17:07;;;;;;;17.82;4.55;;;;;;;27.73;46.47;100140.66;1709706;83;21066;-47
2022/08/21 10:20:10;;;;;;;21.33;4.65;;;;;;;27.80;45.88;100144.56;1677459;84;21077;-48
2022/08/21 10:23:30;;;;;;;19.55;4.58;;;;;;;27.85;45.48;100135.73;1691154;83;21285;-47
2022/08/21 10:26:43;;;;;;;16.27;5.20;;;;;;;27.91;45.56;100129.36;1720274;81;22405;-47
2022/08/21 10:29:43;;;;;;;20.48;4.85;;;;;;;27.97;45.67;100131.09;1715789;83;21149;-48
2022/08/21 10:32:25;;;;;;;19.85;4.35;;;;;;;28.02;45.32;100130.38;1715240;81;21557;-47
2022/08/21 10:35:18;;;;;;;15.95;4.95;;;;;;;28.03;45.52;100128.77;1680629;84;21067;-50
2022/08/21 10:38:27;;;;;;;18.80;4.47;;;;;;;28.10;45.77;100121.31;1690573;83;21284;-49
2022/08/21 10:41:44;;;;;;;16.60;4.85;;;;;;;28.18;45.48;100120.09;1693191;84;21067;-47
2022/08/21 10:44:32;;;;;;;19.87;4.62;;;;;;;28.24;45.37;100124.50;1689293;82;21086;-48
2022/08/21 10:47:19;;;;;;;25.68;4.83;;;;;;;28.30;45.11;100120.83;1681098;84;22238;-47
2022/08/21 10:50:00;;;;;;;21.87;5.08;;;;;;;28.38;44.61;100116.05;1687473;84;21122;-47
2022/08/21 10:52:48;;;;;;;19.85;4.60;;;;;;;28.42;45.16;100115.31;1682084;84;21122;-47
2022/08/21 10:55:19;;;;;;;20.27;5.70;;;;;;;28.48;46.29;100113.50;1671305;84;21715;-48
2022/08/21 10:57:57;;;;;;;16.87;4.15;;;;;;;28.55;44.95;100106.05;1677559;84;21063;-47
2022/08/21 11:00:30;;;;;;;13.62;4.10;;;;;;;28.62;45.32;100108.06;1676805;84;21524;-47
2022/08/21 11:03:14;;;;;;;17.87;4.60;;;;;;;28.69;45.16;100111.41;1677846;84;21068;-47
2022/08/21 11:05:51;;;;;;;14.87;4.65;;;;;;;28.75;45.24;100106.06;1667764;84;21259;-47
2022/08/21 11:08:31;;;;;;;14.07;4.33;;;;;;;28.82;44.46;100106.17;1677542;84;21070;-48
2022/08/21 11:11:03;;;;;;;18.50;5.03;;;;;;;28.90;45.38;100103.03;1675534;84;21102;-47
2022/08/21 11:13:44;;;;;;;19.55;4.78;;;;;;;28.99;44.34;100100.70;1676144;84;21118;-47
2022/08/21 11:16:42;;;;;;;25.80;5.08;;;;;;;29.03;44.85;100102.36;1673274;84;21122;-47
2022/08/21 11:19:39;;;;;;;16.00;4.00;;;;;;;29.07;43.70;100096.73;1677521;84;22011;-47
2022/08/21 11:22:28;;;;;;;18.32;4.47;;;;;;;29.08;44.02;100098.36;1673357;84;21149;-48
2022/08/21 11:25:12;;;;;;;16.05;4.87;;;;;;;29.11;43.54;100093.80;1672955;84;21086;-47
2022/08/21 11:27:47;;;;;;;15.38;4.53;;;;;;;29.19;43.98;100099.34;1659117;84;21104;-48
2022/08/21 11:30:13;;;;;;;21.90;4.97;;;;;;;29.25;43.07;100094.25;1688237;84;21150;-47
2022/08/21 11:33:14;;;;;;;17.10;4.58;;;;;;;29.32;44.10;100092.70;1680310;84;21109;-47
2022/08/21 11:35:54;;;;;;;20.70;4.30;;;;;;;29.44;43.91;100093.39;1677858;84;21044;-47